Hlavní strana
METAR-TAF:

METAR-TAF

Letiště :

Växjö, Švédsko

zeměpisná šířka: 56-51N, zeměpisná délka: 014-50E, výška: 199 m

Aktuální stav počasí

Zpráva byla vytvořena před 22 minutami, v 07:20 UTC
Bezvětří
Teplota 8°C
Vlhkost vzduchu 100%
Tlak 1015 hPa
Viditelnost: 7000 m
Polojasno ve výšce 200 ft
Oblačno až skoro zataženo ve výšce 400 ft
kouřmo

METAR: ESMX 130720Z 00000KT 7000 BR SCT002 BKN004 08/08 Q1015

Čas: 08:42 (07:42 UTC)

Předpověď počasí

Zpráva byla vytvořena před 1 hodinou a 43 minutami, v 05:59 UTC
Předpověď platná od 13 v 06 UTC do 13 v 15 UTC
Západní vítr 4 kt
Viditelnost 10 km a více
Polojasno ve výšce 300 ft
Oblačno až skoro zataženo ve výšce 2000 ft
Dočasný
od 13 v 06 UTC do 13 v 08 UTC
Viditelnost: 2000 m
Oblačno až skoro zataženo ve výšce 200 ft
kouřmo
Dočasný
od 13 v 08 UTC do 13 v 15 UTC
Oblačno až skoro zataženo ve výšce 700 ft

TAF: ESMX 130559Z 1306/1315 26004KT 9999 SCT003 BKN020 TEMPO 1306/1308 2000 BR BKN002 TEMPO 1308/1315 BKN007

Stav a předpovědi počasí z více než 4 000 letišť (zprávy METAR a TAF).

Červené a žluté tečky na mapě představují dostupné meteorologické stanice.

Když kurzor umístíte na tečku, zobrazí se název stanice.

Pak kliknutím zobrazíte stav a předpověď počasí.

Chcete-li změnit mapu, kliknutím na zelené tlačítko se znaménkem +mapu přiblížíte, kliknutím na zelené tlačítko se znaménkem – mapu oddálíte a kliknutím na zelené šipky přejdete na sousední mapy.


METAR-TAF: